sensor_id;sensor_type;location;lat;lon;timestamp;P1;durP1;ratioP1;P2;durP2;ratioP2
24559;SDS011;12727;49.934;8.656;2024-03-08T00:00:14;21.95;;;11.85;;
24559;SDS011;12727;49.934;8.656;2024-03-08T00:02:43;27.25;;;16.45;;
24559;SDS011;12727;49.934;8.656;2024-03-08T00:05:09;26.60;;;16.00;;
24559;SDS011;12727;49.934;8.656;2024-03-08T00:07:35;26.55;;;15.73;;
24559;SDS011;12727;49.934;8.656;2024-03-08T00:10:02;25.50;;;17.02;;
24559;SDS011;12727;49.934;8.656;2024-03-08T00:12:28;24.33;;;16.00;;
24559;SDS011;12727;49.934;8.656;2024-03-08T00:14:54;24.63;;;14.77;;
24559;SDS011;12727;49.934;8.656;2024-03-08T00:17:20;26.70;;;15.23;;
24559;SDS011;12727;49.934;8.656;2024-03-08T00:19:47;24.33;;;15.65;;
24559;SDS011;12727;49.934;8.656;2024-03-08T00:22:16;26.95;;;13.68;;
24559;SDS011;12727;49.934;8.656;2024-03-08T00:24:42;24.65;;;13.38;;
24559;SDS011;12727;49.934;8.656;2024-03-08T00:27:08;28.08;;;15.27;;
24559;SDS011;12727;49.934;8.656;2024-03-08T00:29:34;24.45;;;13.75;;
24559;SDS011;12727;49.934;8.656;2024-03-08T00:32:00;26.02;;;16.42;;
24559;SDS011;12727;49.934;8.656;2024-03-08T00:34:26;26.05;;;14.88;;
24559;SDS011;12727;49.934;8.656;2024-03-08T00:36:51;24.00;;;14.70;;
24559;SDS011;12727;49.934;8.656;2024-03-08T00:39:17;25.10;;;15.63;;
24559;SDS011;12727;49.934;8.656;2024-03-08T00:41:45;26.90;;;16.10;;
24559;SDS011;12727;49.934;8.656;2024-03-08T00:44:11;24.77;;;14.52;;
24559;SDS011;12727;49.934;8.656;2024-03-08T00:46:37;28.38;;;16.77;;
24559;SDS011;12727;49.934;8.656;2024-03-08T00:49:03;40.05;;;14.15;;
24559;SDS011;12727;49.934;8.656;2024-03-08T00:51:29;25.88;;;16.05;;
24559;SDS011;12727;49.934;8.656;2024-03-08T00:53:54;25.70;;;16.58;;
24559;SDS011;12727;49.934;8.656;2024-03-08T00:56:20;24.67;;;11.85;;
24559;SDS011;12727;49.934;8.656;2024-03-08T00:58:45;22.08;;;11.25;;
24559;SDS011;12727;49.934;8.656;2024-03-08T01:01:12;23.77;;;13.48;;
24559;SDS011;12727;49.934;8.656;2024-03-08T01:03:42;22.77;;;12.85;;
24559;SDS011;12727;49.934;8.656;2024-03-08T01:06:08;25.38;;;14.38;;
24559;SDS011;12727;49.934;8.656;2024-03-08T01:08:34;27.63;;;16.92;;
24559;SDS011;12727;49.934;8.656;2024-03-08T01:10:59;26.95;;;15.43;;
24559;SDS011;12727;49.934;8.656;2024-03-08T01:13:25;23.63;;;13.55;;
24559;SDS011;12727;49.934;8.656;2024-03-08T01:15:50;27.85;;;15.93;;
24559;SDS011;12727;49.934;8.656;2024-03-08T01:18:17;28.73;;;18.60;;
24559;SDS011;12727;49.934;8.656;2024-03-08T01:20:44;24.05;;;15.65;;
24559;SDS011;12727;49.934;8.656;2024-03-08T01:23:10;28.50;;;17.25;;
24559;SDS011;12727;49.934;8.656;2024-03-08T01:25:35;19.92;;;11.93;;
24559;SDS011;12727;49.934;8.656;2024-03-08T01:28:01;27.05;;;14.13;;
24559;SDS011;12727;49.934;8.656;2024-03-08T01:30:27;25.40;;;14.95;;
24559;SDS011;12727;49.934;8.656;2024-03-08T01:32:53;27.30;;;16.77;;
24559;SDS011;12727;49.934;8.656;2024-03-08T01:35:18;27.20;;;15.45;;
24559;SDS011;12727;49.934;8.656;2024-03-08T01:37:44;20.17;;;11.13;;
24559;SDS011;12727;49.934;8.656;2024-03-08T01:40:10;28.40;;;15.52;;
24559;SDS011;12727;49.934;8.656;2024-03-08T01:42:36;24.98;;;15.32;;
24559;SDS011;12727;49.934;8.656;2024-03-08T01:45:03;23.45;;;14.52;;
24559;SDS011;12727;49.934;8.656;2024-03-08T01:47:31;30.52;;;14.73;;
24559;SDS011;12727;49.934;8.656;2024-03-08T01:49:57;24.27;;;13.73;;
24559;SDS011;12727;49.934;8.656;2024-03-08T01:52:26;26.30;;;16.38;;
24559;SDS011;12727;49.934;8.656;2024-03-08T01:54:53;29.67;;;17.88;;
24559;SDS011;12727;49.934;8.656;2024-03-08T01:57:19;27.80;;;16.10;;
24559;SDS011;12727;49.934;8.656;2024-03-08T01:59:44;25.42;;;14.43;;
24559;SDS011;12727;49.934;8.656;2024-03-08T02:02:10;26.58;;;15.73;;
24559;SDS011;12727;49.934;8.656;2024-03-08T02:04:38;26.88;;;14.77;;
24559;SDS011;12727;49.934;8.656;2024-03-08T02:07:04;31.58;;;18.35;;
24559;SDS011;12727;49.934;8.656;2024-03-08T02:09:30;28.08;;;16.67;;
24559;SDS011;12727;49.934;8.656;2024-03-08T02:11:55;19.38;;;10.63;;
24559;SDS011;12727;49.934;8.656;2024-03-08T02:14:22;27.35;;;14.77;;
24559;SDS011;12727;49.934;8.656;2024-03-08T02:16:48;18.58;;;9.27;;
24559;SDS011;12727;49.934;8.656;2024-03-08T02:19:14;27.38;;;15.93;;
24559;SDS011;12727;49.934;8.656;2024-03-08T02:21:39;28.15;;;18.35;;
24559;SDS011;12727;49.934;8.656;2024-03-08T02:24:05;27.13;;;15.48;;
24559;SDS011;12727;49.934;8.656;2024-03-08T02:26:31;28.15;;;16.33;;
24559;SDS011;12727;49.934;8.656;2024-03-08T02:28:56;26.40;;;16.02;;
24559;SDS011;12727;49.934;8.656;2024-03-08T02:31:22;25.83;;;15.57;;
24559;SDS011;12727;49.934;8.656;2024-03-08T02:33:47;30.27;;;16.65;;
24559;SDS011;12727;49.934;8.656;2024-03-08T02:36:13;27.60;;;16.90;;
24559;SDS011;12727;49.934;8.656;2024-03-08T02:38:39;26.75;;;15.98;;
24559;SDS011;12727;49.934;8.656;2024-03-08T02:41:06;27.88;;;16.10;;
24559;SDS011;12727;49.934;8.656;2024-03-08T02:43:33;27.70;;;17.25;;
24559;SDS011;12727;49.934;8.656;2024-03-08T02:45:59;26.90;;;16.70;;
24559;SDS011;12727;49.934;8.656;2024-03-08T02:48:25;30.50;;;15.65;;
24559;SDS011;12727;49.934;8.656;2024-03-08T02:50:50;24.63;;;13.25;;
24559;SDS011;12727;49.934;8.656;2024-03-08T02:53:16;27.20;;;15.93;;
24559;SDS011;12727;49.934;8.656;2024-03-08T02:55:43;25.75;;;13.75;;
24559;SDS011;12727;49.934;8.656;2024-03-08T02:58:09;29.27;;;17.30;;
24559;SDS011;12727;49.934;8.656;2024-03-08T03:00:38;28.13;;;16.33;;
24559;SDS011;12727;49.934;8.656;2024-03-08T03:03:05;29.58;;;17.83;;
24559;SDS011;12727;49.934;8.656;2024-03-08T03:05:31;28.23;;;16.88;;
24559;SDS011;12727;49.934;8.656;2024-03-08T03:07:57;27.90;;;17.98;;
24559;SDS011;12727;49.934;8.656;2024-03-08T03:10:23;24.13;;;14.63;;
24559;SDS011;12727;49.934;8.656;2024-03-08T03:12:49;31.52;;;17.70;;
24559;SDS011;12727;49.934;8.656;2024-03-08T03:15:14;29.30;;;16.60;;
24559;SDS011;12727;49.934;8.656;2024-03-08T03:17:47;25.33;;;14.68;;
24559;SDS011;12727;49.934;8.656;2024-03-08T03:20:15;29.30;;;16.67;;
24559;SDS011;12727;49.934;8.656;2024-03-08T03:22:48;30.23;;;16.73;;
24559;SDS011;12727;49.934;8.656;2024-03-08T03:25:20;30.38;;;17.98;;
24559;SDS011;12727;49.934;8.656;2024-03-08T03:27:50;28.83;;;16.48;;
24559;SDS011;12727;49.934;8.656;2024-03-08T03:30:16;25.48;;;13.35;;
24559;SDS011;12727;49.934;8.656;2024-03-08T03:32:46;29.30;;;17.40;;
24559;SDS011;12727;49.934;8.656;2024-03-08T03:35:13;22.05;;;10.88;;
24559;SDS011;12727;49.934;8.656;2024-03-08T03:37:40;28.92;;;16.00;;
24559;SDS011;12727;49.934;8.656;2024-03-08T03:40:08;30.80;;;17.58;;
24559;SDS011;12727;49.934;8.656;2024-03-08T03:42:34;30.02;;;16.75;;
24559;SDS011;12727;49.934;8.656;2024-03-08T03:44:59;30.63;;;17.10;;
24559;SDS011;12727;49.934;8.656;2024-03-08T03:47:25;27.88;;;15.52;;
24559;SDS011;12727;49.934;8.656;2024-03-08T03:49:52;30.40;;;16.88;;
24559;SDS011;12727;49.934;8.656;2024-03-08T03:52:19;29.70;;;15.65;;
24559;SDS011;12727;49.934;8.656;2024-03-08T03:54:44;31.90;;;17.55;;
24559;SDS011;12727;49.934;8.656;2024-03-08T03:57:10;32.72;;;16.08;;
24559;SDS011;12727;49.934;8.656;2024-03-08T03:59:37;28.70;;;16.13;;
24559;SDS011;12727;49.934;8.656;2024-03-08T04:02:03;33.42;;;15.48;;
24559;SDS011;12727;49.934;8.656;2024-03-08T04:04:29;28.08;;;17.00;;
24559;SDS011;12727;49.934;8.656;2024-03-08T04:06:54;33.80;;;18.02;;
24559;SDS011;12727;49.934;8.656;2024-03-08T04:09:20;33.45;;;18.58;;
24559;SDS011;12727;49.934;8.656;2024-03-08T04:11:47;31.40;;;17.85;;
24559;SDS011;12727;49.934;8.656;2024-03-08T04:14:13;36.00;;;18.48;;
24559;SDS011;12727;49.934;8.656;2024-03-08T04:16:38;31.40;;;16.35;;
24559;SDS011;12727;49.934;8.656;2024-03-08T04:19:04;31.08;;;17.05;;
24559;SDS011;12727;49.934;8.656;2024-03-08T04:21:30;32.15;;;16.90;;
24559;SDS011;12727;49.934;8.656;2024-03-08T04:23:55;29.33;;;17.13;;
24559;SDS011;12727;49.934;8.656;2024-03-08T04:26:21;29.42;;;16.58;;
24559;SDS011;12727;49.934;8.656;2024-03-08T04:28:47;32.78;;;17.60;;
24559;SDS011;12727;49.934;8.656;2024-03-08T04:31:12;32.33;;;18.02;;
24559;SDS011;12727;49.934;8.656;2024-03-08T04:33:38;34.25;;;18.05;;
24559;SDS011;12727;49.934;8.656;2024-03-08T04:36:03;30.08;;;18.73;;
24559;SDS011;12727;49.934;8.656;2024-03-08T04:38:29;34.53;;;18.45;;
24559;SDS011;12727;49.934;8.656;2024-03-08T04:40:55;30.48;;;17.77;;
24559;SDS011;12727;49.934;8.656;2024-03-08T04:43:22;33.35;;;18.23;;
24559;SDS011;12727;49.934;8.656;2024-03-08T04:45:50;34.40;;;18.15;;
24559;SDS011;12727;49.934;8.656;2024-03-08T04:48:16;31.20;;;18.30;;
24559;SDS011;12727;49.934;8.656;2024-03-08T04:50:41;36.25;;;18.73;;
24559;SDS011;12727;49.934;8.656;2024-03-08T04:53:07;35.17;;;18.63;;
24559;SDS011;12727;49.934;8.656;2024-03-08T04:55:33;34.03;;;18.55;;
24559;SDS011;12727;49.934;8.656;2024-03-08T04:57:59;34.80;;;18.05;;
24559;SDS011;12727;49.934;8.656;2024-03-08T05:00:25;35.28;;;18.95;;
24559;SDS011;12727;49.934;8.656;2024-03-08T05:02:50;34.88;;;18.33;;
24559;SDS011;12727;49.934;8.656;2024-03-08T05:05:18;35.83;;;18.50;;
24559;SDS011;12727;49.934;8.656;2024-03-08T05:07:44;35.22;;;19.25;;
24559;SDS011;12727;49.934;8.656;2024-03-08T05:10:10;36.03;;;20.58;;
24559;SDS011;12727;49.934;8.656;2024-03-08T05:12:36;36.13;;;18.63;;
24559;SDS011;12727;49.934;8.656;2024-03-08T05:15:03;34.33;;;19.05;;
24559;SDS011;12727;49.934;8.656;2024-03-08T05:17:30;34.30;;;18.75;;
24559;SDS011;12727;49.934;8.656;2024-03-08T05:19:55;32.65;;;18.83;;
24559;SDS011;12727;49.934;8.656;2024-03-08T05:22:21;33.65;;;18.05;;
24559;SDS011;12727;49.934;8.656;2024-03-08T05:24:47;36.38;;;19.48;;
24559;SDS011;12727;49.934;8.656;2024-03-08T05:27:13;33.65;;;18.98;;
24559;SDS011;12727;49.934;8.656;2024-03-08T05:29:38;34.22;;;18.55;;
24559;SDS011;12727;49.934;8.656;2024-03-08T05:32:04;31.52;;;17.33;;
24559;SDS011;12727;49.934;8.656;2024-03-08T05:34:29;33.38;;;19.40;;
24559;SDS011;12727;49.934;8.656;2024-03-08T05:36:55;37.72;;;19.40;;
24559;SDS011;12727;49.934;8.656;2024-03-08T05:39:21;34.75;;;19.00;;
24559;SDS011;12727;49.934;8.656;2024-03-08T05:41:47;39.92;;;20.98;;
24559;SDS011;12727;49.934;8.656;2024-03-08T05:44:12;36.25;;;19.50;;
24559;SDS011;12727;49.934;8.656;2024-03-08T05:46:38;35.22;;;18.27;;
24559;SDS011;12727;49.934;8.656;2024-03-08T05:49:04;34.60;;;18.73;;
24559;SDS011;12727;49.934;8.656;2024-03-08T05:51:31;36.45;;;20.00;;
24559;SDS011;12727;49.934;8.656;2024-03-08T05:53:59;37.55;;;19.08;;
24559;SDS011;12727;49.934;8.656;2024-03-08T05:56:26;38.00;;;20.80;;
24559;SDS011;12727;49.934;8.656;2024-03-08T05:58:51;43.13;;;21.40;;
24559;SDS011;12727;49.934;8.656;2024-03-08T06:01:17;39.00;;;19.90;;
24559;SDS011;12727;49.934;8.656;2024-03-08T06:03:42;37.47;;;19.85;;
24559;SDS011;12727;49.934;8.656;2024-03-08T06:06:13;37.85;;;19.42;;
24559;SDS011;12727;49.934;8.656;2024-03-08T06:08:39;41.38;;;21.20;;
24559;SDS011;12727;49.934;8.656;2024-03-08T06:11:05;32.33;;;18.92;;
24559;SDS011;12727;49.934;8.656;2024-03-08T06:13:34;43.22;;;21.05;;
24559;SDS011;12727;49.934;8.656;2024-03-08T06:16:00;37.53;;;20.88;;
24559;SDS011;12727;49.934;8.656;2024-03-08T06:18:30;37.15;;;20.27;;
24559;SDS011;12727;49.934;8.656;2024-03-08T06:20:56;37.55;;;20.70;;
24559;SDS011;12727;49.934;8.656;2024-03-08T06:23:21;37.88;;;21.10;;
24559;SDS011;12727;49.934;8.656;2024-03-08T06:25:47;36.13;;;19.73;;
24559;SDS011;12727;49.934;8.656;2024-03-08T06:28:13;37.50;;;20.58;;
24559;SDS011;12727;49.934;8.656;2024-03-08T06:30:39;44.63;;;21.35;;
24559;SDS011;12727;49.934;8.656;2024-03-08T06:33:05;41.97;;;22.02;;
24559;SDS011;12727;49.934;8.656;2024-03-08T06:35:30;41.10;;;20.08;;
24559;SDS011;12727;49.934;8.656;2024-03-08T06:37:57;40.30;;;21.58;;
24559;SDS011;12727;49.934;8.656;2024-03-08T06:40:23;39.70;;;19.65;;
24559;SDS011;12727;49.934;8.656;2024-03-08T06:42:48;36.97;;;20.00;;
24559;SDS011;12727;49.934;8.656;2024-03-08T06:45:14;36.35;;;21.55;;
24559;SDS011;12727;49.934;8.656;2024-03-08T06:47:44;35.15;;;19.88;;
24559;SDS011;12727;49.934;8.656;2024-03-08T06:50:10;39.67;;;20.15;;
24559;SDS011;12727;49.934;8.656;2024-03-08T06:52:36;40.75;;;21.23;;
24559;SDS011;12727;49.934;8.656;2024-03-08T06:55:02;39.42;;;22.23;;
24559;SDS011;12727;49.934;8.656;2024-03-08T06:57:30;38.35;;;20.38;;
24559;SDS011;12727;49.934;8.656;2024-03-08T06:59:56;36.75;;;21.50;;
24559;SDS011;12727;49.934;8.656;2024-03-08T07:02:22;36.60;;;21.63;;
24559;SDS011;12727;49.934;8.656;2024-03-08T07:04:49;35.10;;;20.42;;
24559;SDS011;12727;49.934;8.656;2024-03-08T07:07:15;38.22;;;21.35;;
24559;SDS011;12727;49.934;8.656;2024-03-08T07:09:44;38.65;;;21.38;;
24559;SDS011;12727;49.934;8.656;2024-03-08T07:12:10;35.03;;;21.05;;
24559;SDS011;12727;49.934;8.656;2024-03-08T07:14:38;35.08;;;20.25;;
24559;SDS011;12727;49.934;8.656;2024-03-08T07:17:07;37.08;;;21.05;;
24559;SDS011;12727;49.934;8.656;2024-03-08T07:19:36;34.83;;;20.13;;
24559;SDS011;12727;49.934;8.656;2024-03-08T07:22:03;34.35;;;20.38;;
24559;SDS011;12727;49.934;8.656;2024-03-08T07:24:29;36.22;;;19.52;;
24559;SDS011;12727;49.934;8.656;2024-03-08T07:27:17;35.50;;;20.05;;
24559;SDS011;12727;49.934;8.656;2024-03-08T07:29:43;33.67;;;20.10;;
24559;SDS011;12727;49.934;8.656;2024-03-08T07:32:08;33.33;;;20.55;;
24559;SDS011;12727;49.934;8.656;2024-03-08T07:34:49;33.78;;;20.60;;
24559;SDS011;12727;49.934;8.656;2024-03-08T07:37:16;32.42;;;19.20;;
24559;SDS011;12727;49.934;8.656;2024-03-08T07:39:41;32.17;;;19.85;;
24559;SDS011;12727;49.934;8.656;2024-03-08T07:42:08;33.90;;;20.45;;
24559;SDS011;12727;49.934;8.656;2024-03-08T07:44:34;32.38;;;18.92;;
24559;SDS011;12727;49.934;8.656;2024-03-08T07:47:00;30.13;;;20.05;;
24559;SDS011;12727;49.934;8.656;2024-03-08T07:49:26;31.13;;;19.95;;
24559;SDS011;12727;49.934;8.656;2024-03-08T07:51:51;28.67;;;19.65;;
24559;SDS011;12727;49.934;8.656;2024-03-08T07:54:17;29.73;;;20.00;;
24559;SDS011;12727;49.934;8.656;2024-03-08T07:56:43;30.17;;;18.98;;
24559;SDS011;12727;49.934;8.656;2024-03-08T07:59:08;28.67;;;18.60;;
24559;SDS011;12727;49.934;8.656;2024-03-08T08:01:34;28.27;;;19.13;;
24559;SDS011;12727;49.934;8.656;2024-03-08T08:03:59;29.48;;;19.27;;
24559;SDS011;12727;49.934;8.656;2024-03-08T08:06:28;28.05;;;19.05;;
24559;SDS011;12727;49.934;8.656;2024-03-08T08:08:56;28.05;;;18.98;;
24559;SDS011;12727;49.934;8.656;2024-03-08T08:11:22;29.20;;;19.00;;
24559;SDS011;12727;49.934;8.656;2024-03-08T08:13:47;27.52;;;18.52;;
24559;SDS011;12727;49.934;8.656;2024-03-08T08:16:13;30.58;;;18.05;;
24559;SDS011;12727;49.934;8.656;2024-03-08T08:18:39;25.90;;;16.60;;
24559;SDS011;12727;49.934;8.656;2024-03-08T08:21:05;28.50;;;17.77;;
24559;SDS011;12727;49.934;8.656;2024-03-08T08:23:31;29.17;;;19.75;;
24559;SDS011;12727;49.934;8.656;2024-03-08T08:25:57;26.58;;;17.42;;
24559;SDS011;12727;49.934;8.656;2024-03-08T08:28:23;29.48;;;17.10;;
24559;SDS011;12727;49.934;8.656;2024-03-08T08:30:49;31.13;;;17.30;;
24559;SDS011;12727;49.934;8.656;2024-03-08T08:33:15;27.60;;;18.83;;
24559;SDS011;12727;49.934;8.656;2024-03-08T08:35:41;26.10;;;19.23;;
24559;SDS011;12727;49.934;8.656;2024-03-08T08:38:07;27.05;;;16.90;;
24559;SDS011;12727;49.934;8.656;2024-03-08T08:40:33;27.08;;;17.83;;
24559;SDS011;12727;49.934;8.656;2024-03-08T08:43:00;27.95;;;18.88;;
24559;SDS011;12727;49.934;8.656;2024-03-08T08:45:29;26.85;;;18.77;;
24559;SDS011;12727;49.934;8.656;2024-03-08T08:47:58;25.88;;;17.02;;
24559;SDS011;12727;49.934;8.656;2024-03-08T08:50:26;25.73;;;16.70;;
24559;SDS011;12727;49.934;8.656;2024-03-08T08:52:53;27.25;;;17.73;;
24559;SDS011;12727;49.934;8.656;2024-03-08T08:55:19;26.05;;;16.45;;
24559;SDS011;12727;49.934;8.656;2024-03-08T08:57:50;26.02;;;17.63;;
24559;SDS011;12727;49.934;8.656;2024-03-08T09:00:17;24.75;;;16.52;;
24559;SDS011;12727;49.934;8.656;2024-03-08T09:02:45;26.10;;;17.60;;
24559;SDS011;12727;49.934;8.656;2024-03-08T09:05:10;23.45;;;17.42;;
24559;SDS011;12727;49.934;8.656;2024-03-08T09:07:36;29.08;;;17.55;;
24559;SDS011;12727;49.934;8.656;2024-03-08T09:10:02;27.55;;;17.63;;
24559;SDS011;12727;49.934;8.656;2024-03-08T09:12:28;27.58;;;17.90;;
24559;SDS011;12727;49.934;8.656;2024-03-08T09:14:54;19.27;;;12.93;;
24559;SDS011;12727;49.934;8.656;2024-03-08T09:17:20;23.88;;;15.57;;
24559;SDS011;12727;49.934;8.656;2024-03-08T09:19:49;16.17;;;10.63;;
24559;SDS011;12727;49.934;8.656;2024-03-08T09:22:15;22.02;;;14.68;;
24559;SDS011;12727;49.934;8.656;2024-03-08T09:24:40;21.77;;;14.60;;
24559;SDS011;12727;49.934;8.656;2024-03-08T09:27:08;23.13;;;15.05;;
24559;SDS011;12727;49.934;8.656;2024-03-08T09:29:34;23.63;;;14.88;;
24559;SDS011;12727;49.934;8.656;2024-03-08T09:32:00;26.85;;;14.93;;
24559;SDS011;12727;49.934;8.656;2024-03-08T09:34:26;18.90;;;12.02;;
24559;SDS011;12727;49.934;8.656;2024-03-08T09:36:51;22.27;;;14.88;;
24559;SDS011;12727;49.934;8.656;2024-03-08T09:39:17;23.40;;;14.35;;
24559;SDS011;12727;49.934;8.656;2024-03-08T09:41:45;21.05;;;14.32;;
24559;SDS011;12727;49.934;8.656;2024-03-08T09:44:14;19.80;;;13.68;;
24559;SDS011;12727;49.934;8.656;2024-03-08T09:46:40;21.63;;;15.27;;
24559;SDS011;12727;49.934;8.656;2024-03-08T09:49:07;23.33;;;15.55;;
24559;SDS011;12727;49.934;8.656;2024-03-08T09:51:33;19.70;;;13.55;;
24559;SDS011;12727;49.934;8.656;2024-03-08T09:54:03;19.98;;;12.55;;
24559;SDS011;12727;49.934;8.656;2024-03-08T09:56:31;22.85;;;14.10;;
24559;SDS011;12727;49.934;8.656;2024-03-08T09:59:00;20.65;;;13.93;;
24559;SDS011;12727;49.934;8.656;2024-03-08T10:01:49;22.25;;;14.30;;
24559;SDS011;12727;49.934;8.656;2024-03-08T10:04:16;23.63;;;15.25;;
24559;SDS011;12727;49.934;8.656;2024-03-08T10:06:42;21.40;;;14.23;;
24559;SDS011;12727;49.934;8.656;2024-03-08T10:09:08;24.92;;;15.68;;
24559;SDS011;12727;49.934;8.656;2024-03-08T10:11:35;24.90;;;16.13;;
24559;SDS011;12727;49.934;8.656;2024-03-08T10:14:01;22.98;;;16.25;;
24559;SDS011;12727;49.934;8.656;2024-03-08T10:16:27;22.83;;;15.75;;
24559;SDS011;12727;49.934;8.656;2024-03-08T10:18:53;21.95;;;14.80;;
24559;SDS011;12727;49.934;8.656;2024-03-08T10:21:20;21.70;;;16.00;;
24559;SDS011;12727;49.934;8.656;2024-03-08T10:23:46;22.05;;;15.65;;
24559;SDS011;12727;49.934;8.656;2024-03-08T10:26:13;21.20;;;15.55;;
24559;SDS011;12727;49.934;8.656;2024-03-08T10:28:46;22.05;;;16.15;;
24559;SDS011;12727;49.934;8.656;2024-03-08T10:31:13;22.85;;;15.18;;
24559;SDS011;12727;49.934;8.656;2024-03-08T10:33:43;22.08;;;13.30;;
24559;SDS011;12727;49.934;8.656;2024-03-08T10:36:09;20.50;;;14.52;;
24559;SDS011;12727;49.934;8.656;2024-03-08T10:38:36;21.90;;;14.63;;
24559;SDS011;12727;49.934;8.656;2024-03-08T10:41:06;20.65;;;14.98;;
24559;SDS011;12727;49.934;8.656;2024-03-08T10:44:00;21.87;;;15.67;;
24559;SDS011;12727;49.934;8.656;2024-03-08T10:46:53;23.35;;;15.85;;
24559;SDS011;12727;49.934;8.656;2024-03-08T10:49:57;20.17;;;15.77;;
24559;SDS011;12727;49.934;8.656;2024-03-08T10:52:32;22.27;;;15.27;;
24559;SDS011;12727;49.934;8.656;2024-03-08T10:54:59;24.45;;;16.85;;
24559;SDS011;12727;49.934;8.656;2024-03-08T10:57:27;21.30;;;15.90;;
24559;SDS011;12727;49.934;8.656;2024-03-08T10:59:53;21.20;;;16.63;;
24559;SDS011;12727;49.934;8.656;2024-03-08T11:02:20;25.33;;;16.05;;
24559;SDS011;12727;49.934;8.656;2024-03-08T11:04:49;19.80;;;15.32;;
24559;SDS011;12727;49.934;8.656;2024-03-08T11:07:16;24.13;;;16.35;;
24559;SDS011;12727;49.934;8.656;2024-03-08T11:09:43;21.30;;;16.42;;
24559;SDS011;12727;49.934;8.656;2024-03-08T11:12:20;20.30;;;14.00;;
24559;SDS011;12727;49.934;8.656;2024-03-08T11:15:00;21.08;;;14.05;;
24559;SDS011;12727;49.934;8.656;2024-03-08T11:19:59;22.95;;;15.40;;
24559;SDS011;12727;49.934;8.656;2024-03-08T11:22:31;24.25;;;16.45;;
24559;SDS011;12727;49.934;8.656;2024-03-08T11:25:08;18.65;;;13.40;;
24559;SDS011;12727;49.934;8.656;2024-03-08T11:27:37;23.50;;;15.68;;
24559;SDS011;12727;49.934;8.656;2024-03-08T11:30:03;22.45;;;15.95;;
24559;SDS011;12727;49.934;8.656;2024-03-08T11:32:36;23.67;;;16.20;;
24559;SDS011;12727;49.934;8.656;2024-03-08T11:35:06;21.23;;;15.00;;
24559;SDS011;12727;49.934;8.656;2024-03-08T11:37:42;24.35;;;15.93;;
24559;SDS011;12727;49.934;8.656;2024-03-08T11:40:11;23.95;;;15.00;;
24559;SDS011;12727;49.934;8.656;2024-03-08T11:42:40;23.38;;;16.10;;
24559;SDS011;12727;49.934;8.656;2024-03-08T11:45:09;23.23;;;15.10;;
24559;SDS011;12727;49.934;8.656;2024-03-08T11:47:36;22.73;;;14.43;;
24559;SDS011;12727;49.934;8.656;2024-03-08T11:50:05;21.98;;;16.23;;
24559;SDS011;12727;49.934;8.656;2024-03-08T11:52:35;27.92;;;16.02;;
24559;SDS011;12727;49.934;8.656;2024-03-08T11:55:01;21.58;;;12.90;;
24559;SDS011;12727;49.934;8.656;2024-03-08T11:57:28;24.88;;;16.30;;
24559;SDS011;12727;49.934;8.656;2024-03-08T11:59:55;25.77;;;16.20;;
24559;SDS011;12727;49.934;8.656;2024-03-08T12:02:30;25.00;;;16.73;;
24559;SDS011;12727;49.934;8.656;2024-03-08T12:04:59;25.00;;;17.05;;
24559;SDS011;12727;49.934;8.656;2024-03-08T12:07:28;24.48;;;15.27;;
24559;SDS011;12727;49.934;8.656;2024-03-08T12:12:46;24.30;;;16.50;;
24559;SDS011;12727;49.934;8.656;2024-03-08T12:15:13;19.65;;;11.85;;
24559;SDS011;12727;49.934;8.656;2024-03-08T12:17:40;24.23;;;16.95;;
24559;SDS011;12727;49.934;8.656;2024-03-08T12:22:46;23.88;;;14.98;;
24559;SDS011;12727;49.934;8.656;2024-03-08T12:25:14;23.75;;;16.48;;
24559;SDS011;12727;49.934;8.656;2024-03-08T12:27:40;23.27;;;15.68;;
24559;SDS011;12727;49.934;8.656;2024-03-08T12:32:53;23.02;;;14.98;;
24559;SDS011;12727;49.934;8.656;2024-03-08T12:35:24;22.80;;;15.43;;
24559;SDS011;12727;49.934;8.656;2024-03-08T12:37:55;23.95;;;14.80;;
24559;SDS011;12727;49.934;8.656;2024-03-08T12:40:28;25.25;;;15.15;;
24559;SDS011;12727;49.934;8.656;2024-03-08T12:42:56;25.52;;;15.88;;
24559;SDS011;12727;49.934;8.656;2024-03-08T12:45:23;23.60;;;15.40;;
24559;SDS011;12727;49.934;8.656;2024-03-08T12:47:50;23.13;;;14.55;;
24559;SDS011;12727;49.934;8.656;2024-03-08T12:50:16;20.67;;;14.80;;
24559;SDS011;12727;49.934;8.656;2024-03-08T12:52:42;23.33;;;15.07;;
24559;SDS011;12727;49.934;8.656;2024-03-08T12:55:08;19.92;;;12.80;;
24559;SDS011;12727;49.934;8.656;2024-03-08T12:57:34;24.48;;;15.88;;
24559;SDS011;12727;49.934;8.656;2024-03-08T13:00:01;24.30;;;14.90;;
24559;SDS011;12727;49.934;8.656;2024-03-08T13:02:28;23.33;;;14.57;;
24559;SDS011;12727;49.934;8.656;2024-03-08T13:04:55;23.27;;;14.98;;
24559;SDS011;12727;49.934;8.656;2024-03-08T13:07:22;22.50;;;15.38;;
24559;SDS011;12727;49.934;8.656;2024-03-08T13:09:51;21.52;;;14.32;;
24559;SDS011;12727;49.934;8.656;2024-03-08T13:12:18;21.25;;;14.32;;
24559;SDS011;12727;49.934;8.656;2024-03-08T13:14:45;25.33;;;15.30;;
24559;SDS011;12727;49.934;8.656;2024-03-08T13:17:11;22.67;;;15.40;;
24559;SDS011;12727;49.934;8.656;2024-03-08T13:19:37;22.45;;;13.40;;
24559;SDS011;12727;49.934;8.656;2024-03-08T13:22:03;21.35;;;13.95;;
24559;SDS011;12727;49.934;8.656;2024-03-08T13:24:29;17.08;;;10.48;;
24559;SDS011;12727;49.934;8.656;2024-03-08T13:26:55;25.80;;;16.15;;
24559;SDS011;12727;49.934;8.656;2024-03-08T13:29:21;22.20;;;14.90;;
24559;SDS011;12727;49.934;8.656;2024-03-08T13:31:47;22.95;;;15.32;;
24559;SDS011;12727;49.934;8.656;2024-03-08T13:34:16;20.25;;;12.88;;
24559;SDS011;12727;49.934;8.656;2024-03-08T13:36:52;24.00;;;16.75;;
24559;SDS011;12727;49.934;8.656;2024-03-08T13:39:24;24.42;;;15.45;;
24559;SDS011;12727;49.934;8.656;2024-03-08T13:41:50;16.60;;;9.73;;
24559;SDS011;12727;49.934;8.656;2024-03-08T13:44:16;24.08;;;14.30;;
24559;SDS011;12727;49.934;8.656;2024-03-08T13:46:42;20.88;;;13.18;;
24559;SDS011;12727;49.934;8.656;2024-03-08T13:49:07;21.92;;;14.00;;
24559;SDS011;12727;49.934;8.656;2024-03-08T13:51:35;24.08;;;15.40;;
24559;SDS011;12727;49.934;8.656;2024-03-08T13:54:01;22.77;;;14.23;;
24559;SDS011;12727;49.934;8.656;2024-03-08T13:56:27;19.55;;;12.68;;
24559;SDS011;12727;49.934;8.656;2024-03-08T13:58:54;21.65;;;14.80;;
24559;SDS011;12727;49.934;8.656;2024-03-08T14:01:22;20.58;;;14.38;;
24559;SDS011;12727;49.934;8.656;2024-03-08T14:03:47;22.77;;;14.57;;
24559;SDS011;12727;49.934;8.656;2024-03-08T14:06:13;19.38;;;12.98;;
24559;SDS011;12727;49.934;8.656;2024-03-08T14:08:39;20.40;;;13.95;;
24559;SDS011;12727;49.934;8.656;2024-03-08T14:11:05;25.17;;;13.70;;
24559;SDS011;12727;49.934;8.656;2024-03-08T14:13:44;23.20;;;15.32;;
24559;SDS011;12727;49.934;8.656;2024-03-08T14:16:10;23.08;;;14.38;;
24559;SDS011;12727;49.934;8.656;2024-03-08T14:18:36;21.88;;;15.23;;
24559;SDS011;12727;49.934;8.656;2024-03-08T14:21:03;17.95;;;10.90;;
24559;SDS011;12727;49.934;8.656;2024-03-08T14:23:29;22.13;;;14.70;;
24559;SDS011;12727;49.934;8.656;2024-03-08T14:25:55;21.67;;;14.75;;
24559;SDS011;12727;49.934;8.656;2024-03-08T14:28:20;22.27;;;14.95;;
24559;SDS011;12727;49.934;8.656;2024-03-08T14:30:47;22.63;;;14.63;;